createdAt,value
2023-05-09T00:01:45.572Z,-11307.34
2023-05-09T00:04:51.852Z,-11307.63
2023-05-09T00:07:58.139Z,-11307.78
2023-05-09T00:11:04.179Z,-11309.31
2023-05-09T00:14:12.609Z,-11309.03
2023-05-09T00:17:18.978Z,-11305.53
2023-05-09T00:20:25.252Z,-11309.47
2023-05-09T00:23:31.299Z,-11309.75
2023-05-09T00:26:37.359Z,-11307.91
2023-05-09T00:29:44.899Z,-11308.06
2023-05-09T00:32:51.218Z,-11299.75
2023-05-09T00:35:57.532Z,-11297.91
2023-05-09T00:39:03.501Z,-11296.38
2023-05-09T00:42:09.517Z,-11300.19
2023-05-09T00:45:17.053Z,-11296.38
2023-05-09T00:48:23.546Z,-11303.41
2023-05-09T00:51:30.529Z,-11295.53
2023-05-09T00:54:37.100Z,-11298.06
2023-05-09T00:57:43.487Z,-11300.59
2023-05-09T01:00:52.398Z,-11299.34
2023-05-09T01:03:59.414Z,-11293.69
2023-05-09T01:07:11.398Z,-11300.59
2023-05-09T01:10:24.357Z,-11294.13
2023-05-09T01:13:39.484Z,-11286.22
2023-05-09T01:16:55.699Z,-11302.28
2023-05-09T01:20:11.234Z,-11302.28
2023-05-09T01:23:47.917Z,-11300.59
2023-05-09T01:27:17.082Z,-11307.63
2023-05-09T01:30:27.307Z,-11308.06
2023-05-09T01:33:35.113Z,-11309.59
2023-05-09T01:36:42.788Z,-11311.28
2023-05-09T01:39:53.203Z,-11313.84
2023-05-09T01:43:03.291Z,-11314.41
2023-05-09T01:46:12.628Z,-11314.69
2023-05-09T01:49:20.594Z,-11312.84
2023-05-09T01:52:28.027Z,-11314.41
2023-05-09T01:55:36.950Z,-11317.22
2023-05-09T01:58:45.467Z,-11317.22
2023-05-09T02:01:55.363Z,-11315.38
2023-05-09T02:05:03.151Z,-11315.53
2023-05-09T02:08:10.626Z,-11319.87
2023-05-09T02:11:16.962Z,-11315.81
2023-05-09T02:14:23.364Z,-11316.94
2023-05-09T02:17:32.363Z,-11317.91
2023-05-09T02:20:38.872Z,-11318.91
2023-05-09T02:23:44.799Z,-11318.06
2023-05-09T02:26:51.241Z,-11320.72
2023-05-09T02:29:58.549Z,-11321.44
2023-05-09T02:33:09.976Z,-11321.16
2023-05-09T02:36:16.663Z,-11320.31
2023-05-09T02:39:23.070Z,-11319.47
2023-05-09T02:42:30.282Z,-11312.41
2023-05-09T02:45:36.390Z,-11317.34
2023-05-09T02:48:43.932Z,-11315.66
2023-05-09T02:51:49.851Z,-11313.56
2023-05-09T02:54:56.163Z,-11313.41
2023-05-09T02:58:13.620Z,-11322.97
2023-05-09T03:01:21.200Z,-11314.41
2023-05-09T03:04:28.767Z,-11311.72
2023-05-09T03:07:34.991Z,-11321.56
2023-05-09T03:10:40.972Z,-11318.91
2023-05-09T03:13:46.788Z,-11319.87
2023-05-09T03:16:52.722Z,-11307.63
2023-05-09T03:20:01.699Z,-11310.44
2023-05-09T03:23:10.260Z,-11316.94
2023-05-09T03:26:16.510Z,-11308.75
2023-05-09T03:29:22.692Z,-11314.25
2023-05-09T03:32:29.149Z,-11316.09
2023-05-09T03:35:36.464Z,-11312.84
2023-05-09T03:38:42.732Z,-11307.06
2023-05-09T03:41:49.327Z,-11295.09
2023-05-09T03:44:55.781Z,-11297.06
2023-05-09T03:48:03.178Z,-11295.53
2023-05-09T03:51:11.004Z,-11298.34
2023-05-09T03:54:16.985Z,-11292.72
2023-05-09T03:57:23.292Z,-11297.50
2023-05-09T04:00:29.618Z,-11303.69
2023-05-09T04:03:35.580Z,-11307.50
2023-05-09T04:06:43.279Z,-11310.72
2023-05-09T04:09:50.349Z,-11298.06
2023-05-09T04:12:56.974Z,-11304.97
2023-05-09T04:16:03.194Z,-11293.28
2023-05-09T04:19:09.466Z,-11300.03
2023-05-09T04:22:17.197Z,-11294.13
2023-05-09T04:25:23.623Z,-11293.28
2023-05-09T04:28:30.011Z,-11290.59
2023-05-09T04:31:36.555Z,-11292.84
2023-05-09T04:34:43.152Z,-11299.19
2023-05-09T04:37:51.463Z,-11288.78
2023-05-09T04:40:58.651Z,-11293.00
2023-05-09T04:44:05.396Z,-11282.00
2023-05-09T04:47:12.162Z,-11293.69
2023-05-09T04:50:18.827Z,-11289.47
2023-05-09T04:53:26.872Z,-11286.50
2023-05-09T04:56:32.859Z,-11289.06
2023-05-09T04:59:39.140Z,-11297.06
2023-05-09T05:02:45.331Z,-11297.06
2023-05-09T05:05:51.956Z,-11301.88
2023-05-09T05:08:59.614Z,-11295.38
2023-05-09T05:12:09.340Z,-11298.34
2023-05-09T05:15:16.675Z,-11306.38
2023-05-09T05:18:22.956Z,-11285.13
2023-05-09T05:21:29.186Z,-11294.13
2023-05-09T05:24:36.577Z,-11294.97
2023-05-09T05:27:42.826Z,-11289.91
2023-05-09T05:30:48.689Z,-11286.78
2023-05-09T05:33:54.625Z,-11280.88
2023-05-09T05:37:00.640Z,-11300.03
2023-05-09T05:40:09.921Z,-11300.31
2023-05-09T05:43:16.199Z,-11293.28
2023-05-09T05:46:22.225Z,-11286.66
2023-05-09T05:49:28.177Z,-11291.31
2023-05-09T05:52:34.620Z,-11285.97
2023-05-09T05:55:42.299Z,-11295.53
2023-05-09T05:58:48.668Z,-11286.50
2023-05-09T06:01:54.865Z,-11287.06
2023-05-09T06:05:00.875Z,-11293.56
2023-05-09T06:08:07.714Z,-11285.97
2023-05-09T06:11:15.322Z,-11297.06
2023-05-09T06:14:21.633Z,-11291.16
2023-05-09T06:17:28.062Z,-11285.41
2023-05-09T06:20:34.620Z,-11284.41
2023-05-09T06:23:47.557Z,-11288.78
2023-05-09T06:27:05.235Z,-11290.47
2023-05-09T06:30:24.827Z,-11279.34
2023-05-09T06:33:32.871Z,-11289.91
2023-05-09T06:36:38.760Z,-11278.22
2023-05-09T06:39:44.720Z,-11284.00
2023-05-09T06:42:52.233Z,-11284.84
2023-05-09T06:45:58.282Z,-11292.16
2023-05-09T06:49:05.606Z,-11288.63
2023-05-09T06:52:13.016Z,-11295.66
2023-05-09T06:55:19.124Z,-11297.22
2023-05-09T06:58:26.895Z,-11289.06
2023-05-09T07:01:33.029Z,-11291.03
2023-05-09T07:04:38.893Z,-11290.75
2023-05-09T07:07:45.208Z,-11305.09
2023-05-09T07:10:51.390Z,-11293.84
2023-05-09T07:13:59.004Z,-11294.97
2023-05-09T07:17:21.120Z,-11313.69
2023-05-09T07:20:29.586Z,-11305.94
2023-05-09T07:23:35.640Z,-11303.69
2023-05-09T07:26:41.643Z,-11319.59
2023-05-09T07:29:49.304Z,-11308.75
2023-05-09T07:32:55.402Z,-11301.31
2023-05-09T07:36:01.372Z,-11306.50
2023-05-09T07:39:08.265Z,-11311.56
2023-05-09T07:42:14.328Z,-11318.47
2023-05-09T07:45:23.693Z,-11301.44
2023-05-09T07:48:30.251Z,-11308.75
2023-05-09T07:51:36.417Z,-11312.72
2023-05-09T07:54:42.739Z,-11303.41
2023-05-09T07:57:49.056Z,-11309.19
2023-05-09T08:00:58.708Z,-11314.69
2023-05-09T08:04:06.923Z,-11310.44
2023-05-09T08:07:13.219Z,-11300.19
2023-05-09T08:10:19.219Z,-11300.59
2023-05-09T08:13:25.610Z,-11319.31
2023-05-09T08:16:33.241Z,-11316.78
2023-05-09T08:19:39.508Z,-11315.38
2023-05-09T08:22:46.022Z,-11317.34
2023-05-09T08:25:54.506Z,-11313.13
2023-05-09T08:29:01.034Z,-11320.03
2023-05-09T08:32:08.947Z,-11322.28
2023-05-09T08:35:15.592Z,-11313.00
2023-05-09T08:38:22.323Z,-11316.50
2023-05-09T08:41:29.148Z,-11307.06
2023-05-09T08:44:35.287Z,-11318.34
2023-05-09T08:47:43.301Z,-11319.31
2023-05-09T08:50:50.551Z,-11313.56
2023-05-09T08:53:56.944Z,-11304.81
2023-05-09T08:57:03.189Z,-11308.19
2023-05-09T09:00:11.469Z,-11316.50
2023-05-09T09:03:19.458Z,-11305.66
2023-05-09T09:06:26.039Z,-11311.56
2023-05-09T09:09:32.178Z,-11314.25
2023-05-09T09:12:38.861Z,-11322.69
2023-05-09T09:15:47.356Z,-11313.41
2023-05-09T09:18:58.627Z,-11327.06
2023-05-09T09:22:06.654Z,-11307.06
2023-05-09T09:25:13.227Z,-11325.94
2023-05-09T09:28:19.576Z,-11317.63
2023-05-09T09:31:27.788Z,-11315.81
2023-05-09T09:34:35.517Z,-11314.81
2023-05-09T09:37:43.350Z,-11320.16
2023-05-09T09:40:56.432Z,-11310.72
2023-05-09T09:44:08.715Z,-11298.63
2023-05-09T09:47:14.510Z,-11311.28
2023-05-09T09:50:23.493Z,-11301.72
2023-05-09T09:53:31.098Z,-11284.84
2023-05-09T09:56:41.902Z,-11303.00
2023-05-09T09:59:59.845Z,-11289.75
2023-05-09T10:03:06.352Z,-11302.84
2023-05-09T10:06:15.307Z,-11306.22
2023-05-09T10:09:22.737Z,-11318.63
2023-05-09T10:12:29.028Z,-11306.66
2023-05-09T10:15:49.504Z,-11291.72
2023-05-09T10:18:59.033Z,-11320.59
2023-05-09T10:22:10.183Z,-11326.06
2023-05-09T10:25:20.722Z,-11305.81
2023-05-09T10:28:32.583Z,-11323.13
2023-05-09T10:31:40.538Z,-11317.22
2023-05-09T10:34:52.671Z,-11338.63
2023-05-09T10:38:02.919Z,-11302.16
2023-05-09T10:41:10.453Z,-11313.28
2023-05-09T10:44:16.989Z,-11316.50
2023-05-09T10:47:23.556Z,-11324.25
2023-05-09T10:50:29.832Z,-11308.91
2023-05-09T10:53:46.084Z,-11322.28
2023-05-09T10:56:52.481Z,-11305.94
2023-05-09T11:00:00.294Z,-11306.09
2023-05-09T11:03:08.521Z,-11304.25
2023-05-09T11:06:41.489Z,-11306.22
2023-05-09T11:09:53.164Z,-11296.22
2023-05-09T11:13:01.283Z,-11305.66
2023-05-09T11:16:11.346Z,-11297.78
2023-05-09T11:19:35.603Z,-11298.06
2023-05-09T11:22:43.313Z,-11292.44
2023-05-09T11:25:51.270Z,-11298.06
2023-05-09T11:29:00.696Z,-11291.88
2023-05-09T11:32:07.866Z,-11309.03
2023-05-09T11:35:16.161Z,-11296.09
2023-05-09T11:38:23.282Z,-11313.13
2023-05-09T11:41:31.483Z,-11306.22
2023-05-09T11:44:38.032Z,-11310.44
2023-05-09T11:47:44.792Z,-11304.53
2023-05-09T11:50:51.020Z,-11325.78
2023-05-09T11:53:57.363Z,-11305.66
2023-05-09T11:57:04.870Z,-11311.84
2023-05-09T12:00:12.835Z,-11314.41
2023-05-09T12:03:19.581Z,-11299.06
2023-05-09T12:06:28.305Z,-11314.41
2023-05-09T12:09:38.292Z,-11329.31
2023-05-09T12:12:47.436Z,-11309.31
2023-05-09T12:15:53.396Z,-11297.78
2023-05-09T12:18:59.376Z,-11297.91
2023-05-09T12:22:07.049Z,-11303.28
2023-05-09T12:25:13.949Z,-11291.31
2023-05-09T12:28:22.372Z,-11289.91
2023-05-09T12:31:29.444Z,-11289.91
2023-05-09T12:34:35.842Z,-11301.88
2023-05-09T12:37:42.095Z,-11315.81
2023-05-09T12:40:49.666Z,-11308.19
2023-05-09T12:43:57.386Z,-11312.28
2023-05-09T12:47:04.686Z,-11306.78
2023-05-09T12:50:13.446Z,-11294.69
2023-05-09T12:53:25.280Z,-11298.91
2023-05-09T12:56:35.576Z,-11309.31
2023-05-09T12:59:45.578Z,-11290.47
2023-05-09T13:02:52.986Z,-11304.69
2023-05-09T13:06:00.304Z,-11289.19
2023-05-09T13:09:07.960Z,-11303.97
2023-05-09T13:12:14.837Z,-11307.63
2023-05-09T13:15:24.328Z,-11302.16
2023-05-09T13:18:30.973Z,-11311.72
2023-05-09T13:21:38.029Z,-11309.88
2023-05-09T13:24:44.004Z,-11296.22
2023-05-09T13:27:51.417Z,-11288.19
2023-05-09T13:30:59.283Z,-11289.63
2023-05-09T13:34:05.503Z,-11280.88
2023-05-09T13:37:11.804Z,-11287.91
2023-05-09T13:40:18.151Z,-11274.12
2023-05-09T13:43:24.549Z,-11279.34
2023-05-09T13:46:32.405Z,-11296.66
2023-05-09T13:49:39.064Z,-11293.56
2023-05-09T13:52:45.884Z,-11289.91
2023-05-09T13:55:52.233Z,-11286.78
2023-05-09T13:58:58.737Z,-11300.59
2023-05-09T14:02:06.451Z,-11299.91
2023-05-09T14:05:12.862Z,-11302.00
2023-05-09T14:08:19.309Z,-11287.91
2023-05-09T14:11:26.244Z,-11276.81
2023-05-09T14:14:32.392Z,-11276.25
2023-05-09T14:17:39.989Z,-11284.69
2023-05-09T14:20:46.055Z,-11286.78
2023-05-09T14:23:52.476Z,-11287.78
2023-05-09T14:26:58.767Z,-11284.84
2023-05-09T14:30:05.004Z,-11285.97
2023-05-09T14:33:12.720Z,-11291.03
2023-05-09T14:36:18.998Z,-11301.72
2023-05-09T14:39:25.599Z,-11300.31
2023-05-09T14:42:32.122Z,-11301.16
2023-05-09T14:45:38.489Z,-11294.81
2023-05-09T14:48:45.904Z,-11294.41
2023-05-09T14:51:52.181Z,-11271.31
2023-05-09T14:54:59.859Z,-11283.28
2023-05-09T14:58:05.876Z,-11281.59
2023-05-09T15:01:11.985Z,-11283.00
2023-05-09T15:04:19.712Z,-11288.19
2023-05-09T15:07:25.758Z,-11280.31
2023-05-09T15:10:31.893Z,-11294.41
2023-05-09T15:13:38.357Z,-11287.91
2023-05-09T15:16:44.912Z,-11289.34
2023-05-09T15:19:52.383Z,-11273.00
2023-05-09T15:22:58.752Z,-11270.75
2023-05-09T15:26:05.000Z,-11280.88
2023-05-09T15:29:11.055Z,-11276.38
2023-05-09T15:32:17.576Z,-11278.06
2023-05-09T15:35:25.311Z,-11274.00
2023-05-09T15:38:31.558Z,-11266.53
2023-05-09T15:41:37.477Z,-11278.06
2023-05-09T15:44:44.151Z,-11279.63
2023-05-09T15:47:50.681Z,-11284.84
2023-05-09T15:50:58.215Z,-11264.84
2023-05-09T15:54:04.772Z,-11275.81
2023-05-09T15:57:11.440Z,-11268.78
2023-05-09T16:00:18.195Z,-11264.56
2023-05-09T16:03:25.107Z,-11266.53
2023-05-09T16:06:33.750Z,-11269.06
2023-05-09T16:09:40.348Z,-11261.88
2023-05-09T16:12:46.687Z,-11263.44
2023-05-09T16:15:54.031Z,-11274.69
2023-05-09T16:19:00.307Z,-11259.50
2023-05-09T16:22:07.945Z,-11262.72
2023-05-09T16:25:14.096Z,-11263.03
2023-05-09T16:28:23.608Z,-11266.53
2023-05-09T16:31:32.178Z,-11266.25
2023-05-09T16:34:39.755Z,-11268.50
2023-05-09T16:37:47.514Z,-11263.44
2023-05-09T16:40:53.954Z,-11270.19
2023-05-09T16:44:00.443Z,-11266.81
2023-05-09T16:47:06.509Z,-11260.19
2023-05-09T16:50:12.979Z,-11276.25
2023-05-09T16:53:22.829Z,-11260.63
2023-05-09T16:56:29.117Z,-11264.56
2023-05-09T16:59:35.500Z,-11269.06
2023-05-09T17:02:41.943Z,-11261.31
2023-05-09T17:05:48.010Z,-11271.31
2023-05-09T17:08:55.554Z,-11259.50
2023-05-09T17:12:01.301Z,-11260.19
2023-05-09T17:15:09.006Z,-11255.00
2023-05-09T17:18:22.132Z,-11251.63
2023-05-09T17:21:35.906Z,-11259.78
2023-05-09T17:24:43.815Z,-11255.56
2023-05-09T17:27:50.576Z,-11251.91
2023-05-09T17:30:59.125Z,-11249.78
2023-05-09T17:34:05.810Z,-11252.59
2023-05-09T17:37:12.580Z,-11250.50
2023-05-09T17:40:20.094Z,-11249.37
2023-05-09T17:43:27.979Z,-11249.22
2023-05-09T17:46:34.439Z,-11254.44
2023-05-09T17:49:40.712Z,-11247.13
2023-05-09T17:52:47.568Z,-11241.75
2023-05-09T17:55:55.222Z,-11241.19
2023-05-09T17:59:01.700Z,-11238.38
2023-05-09T18:02:08.160Z,-11243.75
2023-05-09T18:05:14.311Z,-11241.06
2023-05-09T18:08:20.560Z,-11240.91
2023-05-09T18:11:27.798Z,-11238.81
2023-05-09T18:14:33.779Z,-11239.78
2023-05-09T18:17:39.931Z,-11241.63
2023-05-09T18:20:47.199Z,-11234.31
2023-05-09T18:23:53.417Z,-11229.37
2023-05-09T18:27:03.144Z,-11225.88
2023-05-09T18:30:10.545Z,-11228.81
2023-05-09T18:33:16.823Z,-11235.88
2023-05-09T18:36:23.260Z,-11223.34
2023-05-09T18:39:29.108Z,-11235.03
2023-05-09T18:42:37.009Z,-11237.56
2023-05-09T18:45:45.116Z,-11228.97
2023-05-09T18:48:52.540Z,-11225.31
2023-05-09T18:52:00.218Z,-11229.37
2023-05-09T18:55:07.216Z,-11223.34
2023-05-09T18:58:14.795Z,-11231.22
2023-05-09T19:01:21.168Z,-11224.03
2023-05-09T19:04:27.845Z,-11219.25
2023-05-09T19:07:34.320Z,-11227.69
2023-05-09T19:10:40.556Z,-11235.31
2023-05-09T19:13:49.696Z,-11220.94
2023-05-09T19:16:55.781Z,-11221.66
2023-05-09T19:20:02.557Z,-11217.28
2023-05-09T19:23:08.540Z,-11221.50
2023-05-09T19:26:16.208Z,-11223.47
2023-05-09T19:29:23.819Z,-11224.31
2023-05-09T19:32:30.451Z,-11216.44
2023-05-09T19:35:37.683Z,-11223.62
2023-05-09T19:38:43.783Z,-11208.44
2023-05-09T19:41:49.936Z,-11211.38
2023-05-09T19:44:57.628Z,-11219.25
2023-05-09T19:48:03.599Z,-11217.56
2023-05-09T19:51:12.429Z,-11218.84
2023-05-09T19:54:18.950Z,-11223.62
2023-05-09T19:57:25.192Z,-11227.97
2023-05-09T20:00:32.712Z,-11218.28
2023-05-09T20:03:41.005Z,-11223.47
2023-05-09T20:06:46.999Z,-11209.97
2023-05-09T20:09:53.007Z,-11217.00
2023-05-09T20:12:59.564Z,-11218.69
2023-05-09T20:16:07.192Z,-11216.88
2023-05-09T20:19:15.006Z,-11223.91
2023-05-09T20:22:21.047Z,-11209.56
2023-05-09T20:25:27.323Z,-11215.59
2023-05-09T20:28:33.691Z,-11217.00
2023-05-09T20:31:41.732Z,-11214.91
2023-05-09T20:34:48.312Z,-11220.66
2023-05-09T20:37:54.586Z,-11221.09
2023-05-09T20:41:00.766Z,-11226.00
2023-05-09T20:44:07.436Z,-11215.59
2023-05-09T20:47:15.018Z,-11215.03
2023-05-09T20:50:21.166Z,-11210.53
2023-05-09T20:53:30.301Z,-11212.78
2023-05-09T20:56:36.720Z,-11213.34
2023-05-09T20:59:42.902Z,-11217.00
2023-05-09T21:02:50.351Z,-11217.56
2023-05-09T21:05:56.897Z,-11225.44
2023-05-09T21:09:03.308Z,-11208.00
2023-05-09T21:12:11.227Z,-11216.16
2023-05-09T21:15:17.931Z,-11214.19
2023-05-09T21:18:25.540Z,-11217.28
2023-05-09T21:21:33.040Z,-11220.25
2023-05-09T21:24:39.263Z,-11228.41
2023-05-09T21:27:45.477Z,-11222.78
2023-05-09T21:30:53.098Z,-11210.53
2023-05-09T21:34:01.035Z,-11211.38
2023-05-09T21:37:07.018Z,-11215.59
2023-05-09T21:40:14.669Z,-11218.00
2023-05-09T21:43:21.360Z,-11203.50
2023-05-09T21:46:27.833Z,-11214.19
2023-05-09T21:49:35.575Z,-11217.84
2023-05-09T21:52:41.480Z,-11211.53
2023-05-09T21:55:47.969Z,-11220.81
2023-05-09T21:58:54.564Z,-11224.03
2023-05-09T22:02:01.185Z,-11216.03
2023-05-09T22:05:09.620Z,-11226.56
2023-05-09T22:08:15.742Z,-11226.16
2023-05-09T22:11:22.704Z,-11230.78
2023-05-09T22:14:29.185Z,-11225.44
2023-05-09T22:17:35.240Z,-11218.28
2023-05-09T22:20:42.937Z,-11228.81
2023-05-09T22:23:49.386Z,-11216.16
2023-05-09T22:26:55.653Z,-11231.22
2023-05-09T22:30:02.956Z,-11220.25
2023-05-09T22:33:09.001Z,-11226.28
2023-05-09T22:36:16.632Z,-11232.06
2023-05-09T22:39:23.217Z,-11229.09
2023-05-09T22:42:29.486Z,-11210.53
2023-05-09T22:45:35.796Z,-11210.81
2023-05-09T22:48:41.575Z,-11222.50
2023-05-09T22:51:49.302Z,-11209.69
2023-05-09T22:54:55.404Z,-11216.72
2023-05-09T22:58:01.455Z,-11216.44
2023-05-09T23:01:07.853Z,-11211.81
2023-05-09T23:04:14.238Z,-11216.31
2023-05-09T23:07:21.499Z,-11207.72
2023-05-09T23:10:28.488Z,-11205.06
2023-05-09T23:13:34.857Z,-11214.47
2023-05-09T23:16:41.256Z,-11217.84
2023-05-09T23:19:47.460Z,-11214.63
2023-05-09T23:22:55.159Z,-11215.88
2023-05-09T23:26:01.305Z,-11206.59
2023-05-09T23:29:07.257Z,-11218.84
2023-05-09T23:32:13.355Z,-11220.38
2023-05-09T23:35:21.184Z,-11222.63
2023-05-09T23:38:28.588Z,-11205.63
2023-05-09T23:41:34.694Z,-11208.00
2023-05-09T23:44:40.892Z,-11217.00
2023-05-09T23:47:47.064Z,-11215.47
2023-05-09T23:50:53.278Z,-11212.50
2023-05-09T23:54:01.061Z,-11215.88
2023-05-09T23:57:07.891Z,-11211.38
